CDT,Max TemperatureF,Mean TemperatureF,Min TemperatureF,Max Dew PointF,MeanDew PointF,Min DewpointF,Max Humidity, Mean Humidity, Min Humidity, Max Sea Level PressureIn, Mean Sea Level PressureIn, Min Sea Level PressureIn, Max VisibilityMiles, Mean VisibilityMiles, Min VisibilityMiles, Max Wind SpeedMPH, Mean Wind SpeedMPH, Max Gust SpeedMPH,PrecipitationIn, CloudCover, Events, WindDirDegrees
2013-4-1,33,27,21,12,10,9,68,52,35,30.11,30.01,29.86,10,10,10,18,12,24,0.00,3,,313
2013-4-2,37,29,21,16,11,7,64,48,33,30.28,30.17,30.09,10,10,10,14,9,21,0.00,2,,301
2013-4-3,35,28,21,19,13,7,80,54,35,30.46,30.35,30.21,10,10,10,15,5,22,0.00,0,,274
2013-4-4,48,39,30,30,24,18,75,55,42,30.20,30.01,29.91,10,10,10,22,13,26,0.00,2,,233
2013-4-5,37,32,26,27,19,12,80,61,36,30.27,30.19,30.06,10,10,10,14,7,21,0.00,1,,47
2013-4-6,48,35,28,43,30,21,93,74,60,30.18,29.84,29.46,10,9,1,24,11,38,0.07,8,,153
2013-4-7,48,40,33,46,31,28,93,76,53,30.00,29.81,29.46,10,9,2,16,11,21,0.07,5,,276
2013-4-8,37,35,33,36,32,30,100,87,75,30.02,29.88,29.78,10,8,1,13,9,18,0.10,6,,59
2013-4-9,37,34,30,36,32,25,100,90,75,30.13,30.06,30.02,10,5,0,20,8,28,0.36,8,,18
2013-4-10,37,34,30,28,27,19,93,78,52,30.17,30.09,30.04,10,9,2,17,12,24,0.65,8,Thunderstorm,34
2013-4-11,35,32,30,28,26,21,93,79,60,30.05,29.88,29.69,10,7,0,36,14,52,0.09,7,,66
2013-4-12,32,30,28,30,28,27,93,91,86,29.73,29.65,29.59,10,4,1,14,7,30,0.12,8,,35
2013-4-13,37,32,28,30,25,19,93,76,48,29.95,29.78,29.69,10,8,1,18,8,24,0.01,8,,265
2013-4-14,39,32,24,32,25,19,86,75,60,30.05,29.94,29.73,10,10,3,16,6,24,0.01,3,,83
2013-4-15,60,48,37,46,36,27,93,69,41,29.91,29.74,29.63,10,9,2,26,13,33,0.16,4,,217
2013-4-16,48,40,33,30,27,25,75,60,40,30.35,30.11,29.91,10,10,10,20,10,26,0.00,1,,284
2013-4-17,39,34,30,36,31,27,93,81,65,30.39,30.25,29.98,10,10,4,14,8,18,0.01,5,,62
2013-4-18,46,40,35,45,36,32,100,93,87,29.96,29.59,29.26,10,4,0,23,10,33,0.23,8,,52
2013-4-19,42,35,26,39,23,12,87,64,44,29.82,29.39,29.17,10,10,9,26,19,36,0.00,8,,258
2013-4-20,39,31,23,25,15,10,80,56,31,30.42,30.17,29.83,10,10,10,18,12,25,0.00,2,,294
2013-4-21,42,36,30,30,26,21,87,69,49,30.53,30.42,30.24,10,10,4,21,10,30,0.00,5,,160
2013-4-22,51,45,39,37,33,28,87,71,50,30.25,30.19,30.06,10,10,6,22,14,26,0.06,7,,165
2013-4-23,46,40,35,43,33,25,93,77,62,30.05,29.94,29.84,10,9,1,14,9,21,0.05,7,,348
2013-4-24,50,40,30,28,23,18,80,53,28,29.99,29.95,29.92,10,10,10,14,7,21,0.00,1,,284
2013-4-25,50,42,35,32,27,21,81,56,37,30.26,30.07,29.86,10,10,10,18,12,32,0.00,4,,252
2013-4-26,55,45,35,46,33,25,82,63,49,30.27,30.19,30.11,10,10,7,29,11,41,0.05,4,,184
2013-4-27,64,57,50,52,44,36,82,64,51,30.19,30.13,30.03,10,10,10,22,11,29,0.00,1,,198
2013-4-28,68,55,42,46,39,36,87,55,33,30.03,29.91,29.81,10,10,10,12,7,,0.00,2,,150
2013-4-29,57,52,46,52,46,43,94,85,76,29.85,29.81,29.78,10,8,2,16,7,17,0.08,6,,159
2013-4-30,64,55,48,54,48,45,93,79,63,29.83,29.75,29.71,10,9,5,30,17,38,0.40,4,Thunderstorm,168